ENT4236 HEMA-EPKT
Flight info
| Callsign | ENT4236 |
|---|---|
| Flight time | N/A |
| Altitude | 34000 |
| Route | ALKUN1B ALKUN V730 MEMPO DCT LXR DCT AST DCT KUNKI L321 REXUM DCT SOBAX DCT NOGLI DCT ANTAR UN133 KPC/N0444F360 UN133 ATFIR DCT LOMOS DCT NARKA DCT KEKED DCT LENOV |
| Aircraft | B738/M-SDFGHIJ1RWXY/EB1 |
Departure
| Time | 2026-04-16 15:35 |
|---|---|
| Airport | Marsa Alam International Airport (HEMA) |
Arrival
| Time | N/A |
|---|---|
| Airport | Katowice Wojciech Korfanty International Airport (EPKT) |
| Time | Latitude | Longitude | Altitude | Speed | Heading |
|---|---|---|---|---|---|
| 2026-04-16 15:18 | 25.55511 | 34.59063 | 241 ft | 0 kts | 60° |
| 2026-04-16 15:26 | 25.55510 | 34.59061 | 239 ft | 2 kts | 60° |
| 2026-04-16 15:26 | 25.55502 | 34.59045 | 241 ft | 2 kts | 59° |
| 2026-04-16 15:26 | 25.55493 | 34.59029 | 241 ft | 2 kts | 58° |
| 2026-04-16 15:27 | 25.55484 | 34.59014 | 241 ft | 2 kts | 53° |
| 2026-04-16 15:27 | 25.55473 | 34.59001 | 241 ft | 2 kts | 25° |
| 2026-04-16 15:27 | 25.55459 | 34.59000 | 241 ft | 1 kts | 333° |
| 2026-04-16 15:27 | 25.55458 | 34.59001 | 241 ft | 0 kts | 332° |
| 2026-04-16 15:29 | 25.55459 | 34.59001 | 241 ft | 1 kts | 332° |
| 2026-04-16 15:29 | 25.55485 | 34.58984 | 241 ft | 8 kts | 329° |
| 2026-04-16 15:29 | 25.55554 | 34.58940 | 241 ft | 15 kts | 330° |
| 2026-04-16 15:30 | 25.55629 | 34.58860 | 241 ft | 17 kts | 272° |
| 2026-04-16 15:30 | 25.55574 | 34.58738 | 252 ft | 18 kts | 240° |
| 2026-04-16 15:30 | 25.55507 | 34.58612 | 256 ft | 21 kts | 239° |
| 2026-04-16 15:30 | 25.55555 | 34.58474 | 257 ft | 23 kts | 334° |
| 2026-04-16 15:31 | 25.55707 | 34.58383 | 260 ft | 27 kts | 330° |
| 2026-04-16 15:31 | 25.55883 | 34.58270 | 262 ft | 31 kts | 329° |
| 2026-04-16 15:31 | 25.56086 | 34.58140 | 258 ft | 36 kts | 330° |
| 2026-04-16 15:31 | 25.56321 | 34.57990 | 256 ft | 41 kts | 330° |
| 2026-04-16 15:32 | 25.56570 | 34.57830 | 259 ft | 43 kts | 330° |
| 2026-04-16 15:32 | 25.56807 | 34.57679 | 265 ft | 36 kts | 329° |
| 2026-04-16 15:32 | 25.56980 | 34.57572 | 265 ft | 23 kts | 342° |
| 2026-04-16 15:32 | 25.57073 | 34.57546 | 265 ft | 6 kts | 282° |
| 2026-04-16 15:33 | 25.57052 | 34.57514 | 265 ft | 0 kts | 189° |
| 2026-04-16 15:33 | 25.57050 | 34.57517 | 265 ft | 0 kts | 147° |
| 2026-04-16 15:33 | 25.57034 | 34.57533 | 265 ft | 6 kts | 144° |
| 2026-04-16 15:33 | 25.57023 | 34.57541 | 265 ft | 0 kts | 149° |
| 2026-04-16 15:34 | 25.57017 | 34.57545 | 265 ft | 6 kts | 149° |
| 2026-04-16 15:34 | 25.56761 | 34.57710 | 264 ft | 81 kts | 150° |
| 2026-04-16 15:34 | 25.56058 | 34.58158 | 258 ft | 149 kts | 150° |
| 2026-04-16 15:34 | 25.55017 | 34.58835 | 492 ft | 188 kts | 149° |
| 2026-04-16 15:35 | 25.53858 | 34.59589 | 1346 ft | 195 kts | 148° |
| 2026-04-16 15:35 | 25.52690 | 34.60333 | 2228 ft | 197 kts | 148° |
| 2026-04-16 15:35 | 25.51422 | 34.61142 | 2479 ft | 223 kts | 148° |
| 2026-04-16 15:35 | 25.50024 | 34.62040 | 2766 ft | 239 kts | 148° |
| 2026-04-16 15:36 | 25.48528 | 34.63007 | 3000 ft | 263 kts | 148° |
| 2026-04-16 15:36 | 25.46893 | 34.64064 | 3443 ft | 277 kts | 148° |
| 2026-04-16 15:36 | 25.45138 | 34.64914 | 4260 ft | 275 kts | 171° |
| 2026-04-16 15:36 | 25.43271 | 34.64789 | 5138 ft | 270 kts | 200° |
| 2026-04-16 15:37 | 25.41675 | 34.63722 | 5828 ft | 271 kts | 225° |
| 2026-04-16 15:37 | 25.40553 | 34.62058 | 6565 ft | 271 kts | 239° |
| 2026-04-16 15:37 | 25.39610 | 34.60244 | 7237 ft | 274 kts | 241° |
| 2026-04-16 15:37 | 25.38661 | 34.58398 | 7906 ft | 277 kts | 241° |
| 2026-04-16 15:38 | 25.37694 | 34.56544 | 8619 ft | 280 kts | 240° |
| 2026-04-16 15:38 | 25.36839 | 34.54615 | 9329 ft | 281 kts | 257° |
| 2026-04-16 15:38 | 25.36856 | 34.52459 | 9968 ft | 284 kts | 281° |
| 2026-04-16 15:38 | 25.37311 | 34.50298 | 10387 ft | 298 kts | 283° |
| 2026-04-16 15:39 | 25.37837 | 34.47991 | 10535 ft | 320 kts | 284° |
| 2026-04-16 15:39 | 25.38406 | 34.45532 | 10684 ft | 340 kts | 284° |
| 2026-04-16 15:39 | 25.39001 | 34.42947 | 10987 ft | 352 kts | 283° |
| 2026-04-16 15:39 | 25.39597 | 34.40337 | 11560 ft | 355 kts | 283° |
| 2026-04-16 15:40 | 25.40195 | 34.37691 | 12197 ft | 357 kts | 283° |
| 2026-04-16 15:40 | 25.40797 | 34.35010 | 12765 ft | 361 kts | 283° |
| 2026-04-16 15:40 | 25.41401 | 34.32304 | 13382 ft | 363 kts | 283° |
| 2026-04-16 15:40 | 25.42012 | 34.29553 | 13994 ft | 364 kts | 283° |
| 2026-04-16 15:41 | 25.42616 | 34.26829 | 14575 ft | 366 kts | 283° |
| 2026-04-16 15:41 | 25.43213 | 34.24126 | 15126 ft | 368 kts | 283° |
| 2026-04-16 15:41 | 25.43821 | 34.21375 | 15729 ft | 368 kts | 283° |
| 2026-04-16 15:41 | 25.44426 | 34.18630 | 16364 ft | 368 kts | 282° |
| 2026-04-16 15:42 | 25.45040 | 34.15845 | 16955 ft | 369 kts | 282° |
| 2026-04-16 15:42 | 25.45640 | 34.13116 | 17532 ft | 370 kts | 282° |
| 2026-04-16 15:42 | 25.46249 | 34.10347 | 18078 ft | 371 kts | 282° |
| 2026-04-16 15:42 | 25.46861 | 34.07558 | 18538 ft | 373 kts | 282° |
| 2026-04-16 15:43 | 25.47475 | 34.04761 | 18989 ft | 375 kts | 282° |
| 2026-04-16 15:43 | 25.48091 | 34.01951 | 19453 ft | 377 kts | 282° |
| 2026-04-16 15:43 | 25.48711 | 33.99119 | 19907 ft | 379 kts | 282° |
| 2026-04-16 15:43 | 25.49334 | 33.96273 | 20349 ft | 382 kts | 282° |
| 2026-04-16 15:44 | 25.49962 | 33.93398 | 20820 ft | 384 kts | 282° |
| 2026-04-16 15:44 | 25.50590 | 33.90523 | 21258 ft | 385 kts | 282° |
| 2026-04-16 15:44 | 25.51221 | 33.87632 | 21695 ft | 387 kts | 282° |
| 2026-04-16 15:44 | 25.51855 | 33.84724 | 22119 ft | 389 kts | 282° |
| 2026-04-16 15:45 | 25.52491 | 33.81801 | 22535 ft | 391 kts | 282° |
| 2026-04-16 15:45 | 25.53129 | 33.78867 | 22965 ft | 393 kts | 282° |
| 2026-04-16 15:45 | 25.53770 | 33.75914 | 23342 ft | 395 kts | 282° |
| 2026-04-16 15:45 | 25.54413 | 33.72953 | 23671 ft | 397 kts | 282° |
| 2026-04-16 15:46 | 25.55060 | 33.69972 | 24006 ft | 398 kts | 282° |
| 2026-04-16 15:46 | 25.55706 | 33.66986 | 24344 ft | 400 kts | 282° |
| 2026-04-16 15:46 | 25.56356 | 33.63984 | 24677 ft | 402 kts | 282° |
| 2026-04-16 15:46 | 25.57008 | 33.60969 | 25002 ft | 403 kts | 282° |
| 2026-04-16 15:47 | 25.57661 | 33.57944 | 25318 ft | 405 kts | 282° |
| 2026-04-16 15:47 | 25.58316 | 33.54906 | 25647 ft | 406 kts | 282° |
| 2026-04-16 15:47 | 25.58973 | 33.51857 | 25943 ft | 408 kts | 282° |
| 2026-04-16 15:47 | 25.59632 | 33.48794 | 26242 ft | 410 kts | 282° |
| 2026-04-16 15:48 | 25.60293 | 33.45718 | 26540 ft | 411 kts | 282° |
| 2026-04-16 15:48 | 25.60948 | 33.42671 | 26835 ft | 412 kts | 282° |
| 2026-04-16 15:48 | 25.61620 | 33.39538 | 27117 ft | 414 kts | 282° |
| 2026-04-16 15:48 | 25.62286 | 33.36429 | 27409 ft | 415 kts | 282° |
| 2026-04-16 15:49 | 25.62953 | 33.33312 | 27689 ft | 417 kts | 282° |
| 2026-04-16 15:49 | 25.63622 | 33.30183 | 27958 ft | 418 kts | 282° |
| 2026-04-16 15:49 | 25.64292 | 33.27047 | 28216 ft | 420 kts | 282° |
| 2026-04-16 15:49 | 25.64964 | 33.23897 | 28555 ft | 419 kts | 282° |
| 2026-04-16 15:50 | 25.65632 | 33.20763 | 29004 ft | 416 kts | 282° |
| 2026-04-16 15:50 | 25.66294 | 33.17656 | 29466 ft | 413 kts | 282° |
| 2026-04-16 15:50 | 25.66952 | 33.14563 | 29844 ft | 412 kts | 282° |
| 2026-04-16 15:50 | 25.67608 | 33.11475 | 30161 ft | 411 kts | 282° |
| 2026-04-16 15:51 | 25.68260 | 33.08399 | 30534 ft | 408 kts | 282° |
| 2026-04-16 15:51 | 25.68893 | 33.05415 | 30941 ft | 405 kts | 281° |
| 2026-04-16 15:51 | 25.69534 | 33.02384 | 31300 ft | 402 kts | 281° |
| 2026-04-16 15:51 | 25.70172 | 32.99368 | 31618 ft | 401 kts | 281° |
| 2026-04-16 15:52 | 25.70807 | 32.96363 | 31927 ft | 400 kts | 281° |
| 2026-04-16 15:52 | 25.71439 | 32.93366 | 32268 ft | 398 kts | 281° |
| 2026-04-16 15:52 | 25.72057 | 32.90431 | 32632 ft | 395 kts | 281° |
| 2026-04-16 15:52 | 25.72681 | 32.87469 | 32922 ft | 394 kts | 281° |
| 2026-04-16 15:53 | 25.73305 | 32.84501 | 33118 ft | 395 kts | 281° |
| 2026-04-16 15:53 | 25.73932 | 32.81537 | 33352 ft | 396 kts | 283° |
| 2026-04-16 15:53 | 25.74837 | 32.78649 | 33595 ft | 398 kts | 290° |
| 2026-04-16 15:54 | 25.77573 | 32.73260 | 33680 ft | 406 kts | 303° |
| 2026-04-16 15:54 | 25.81158 | 32.68451 | 33675 ft | 403 kts | 305° |
| 2026-04-16 15:55 | 25.84764 | 32.63720 | 33677 ft | 400 kts | 304° |
| 2026-04-16 15:55 | 25.88335 | 32.58996 | 33681 ft | 398 kts | 304° |
| 2026-04-16 15:56 | 25.91892 | 32.54256 | 33683 ft | 402 kts | 304° |
| 2026-04-16 15:56 | 25.95490 | 32.49445 | 33691 ft | 406 kts | 304° |
| 2026-04-16 15:57 | 25.99109 | 32.44605 | 33682 ft | 408 kts | 304° |
| 2026-04-16 15:57 | 26.02735 | 32.39750 | 33681 ft | 408 kts | 304° |
| 2026-04-16 15:58 | 26.06359 | 32.34893 | 33677 ft | 407 kts | 304° |
| 2026-04-16 15:58 | 26.09968 | 32.30050 | 33683 ft | 406 kts | 304° |
| 2026-04-16 15:59 | 26.15386 | 32.22770 | 33676 ft | 404 kts | 304° |
| 2026-04-16 15:59 | 26.18937 | 32.17990 | 33674 ft | 403 kts | 304° |
| 2026-04-16 16:00 | 26.22502 | 32.13187 | 33669 ft | 401 kts | 304° |
| 2026-04-16 16:00 | 26.26067 | 32.08377 | 33682 ft | 400 kts | 304° |
| 2026-04-16 16:01 | 26.29613 | 32.03588 | 33689 ft | 401 kts | 304° |
| 2026-04-16 16:01 | 26.33175 | 31.98775 | 33685 ft | 403 kts | 304° |
| 2026-04-16 16:02 | 26.36741 | 31.93950 | 33679 ft | 403 kts | 304° |
| 2026-04-16 16:02 | 26.40293 | 31.89139 | 33681 ft | 403 kts | 304° |
| 2026-04-16 16:03 | 26.43876 | 31.84283 | 33685 ft | 403 kts | 304° |
| 2026-04-16 16:03 | 26.47456 | 31.79423 | 33677 ft | 403 kts | 304° |
| 2026-04-16 16:04 | 26.51007 | 31.74599 | 33678 ft | 401 kts | 304° |
| 2026-04-16 16:04 | 26.54537 | 31.69797 | 33682 ft | 400 kts | 303° |
| 2026-04-16 16:05 | 26.58038 | 31.65030 | 33682 ft | 399 kts | 303° |
| 2026-04-16 16:05 | 26.61573 | 31.60211 | 33682 ft | 397 kts | 303° |
| 2026-04-16 16:06 | 26.64482 | 31.56241 | 33683 ft | 397 kts | 303° |
| 2026-04-16 16:06 | 26.67994 | 31.51444 | 33679 ft | 396 kts | 303° |
| 2026-04-16 16:07 | 26.71456 | 31.46711 | 33680 ft | 395 kts | 303° |
| 2026-04-16 16:07 | 26.74955 | 31.41921 | 33690 ft | 395 kts | 303° |
| 2026-04-16 16:08 | 26.78409 | 31.37187 | 33678 ft | 396 kts | 303° |
| 2026-04-16 16:08 | 26.81918 | 31.32372 | 33678 ft | 396 kts | 303° |
| 2026-04-16 16:09 | 26.85402 | 31.27587 | 33684 ft | 397 kts | 303° |
| 2026-04-16 16:09 | 26.88892 | 31.22790 | 33676 ft | 398 kts | 303° |
| 2026-04-16 16:10 | 26.92387 | 31.17980 | 33688 ft | 398 kts | 303° |
| 2026-04-16 16:10 | 26.95887 | 31.13158 | 33684 ft | 399 kts | 303° |
| 2026-04-16 16:11 | 26.99389 | 31.08327 | 33679 ft | 399 kts | 303° |
| 2026-04-16 16:11 | 27.02996 | 31.03569 | 33669 ft | 404 kts | 309° |
| 2026-04-16 16:12 | 27.07476 | 30.99632 | 33686 ft | 412 kts | 317° |
| 2026-04-16 16:12 | 27.12180 | 30.95944 | 33675 ft | 412 kts | 317° |
| 2026-04-16 16:13 | 27.16866 | 30.92249 | 33669 ft | 411 kts | 317° |
| 2026-04-16 16:13 | 27.21534 | 30.88543 | 33677 ft | 410 kts | 317° |
| 2026-04-16 16:14 | 27.26192 | 30.84831 | 33667 ft | 410 kts | 317° |
| 2026-04-16 16:14 | 27.30837 | 30.81122 | 33673 ft | 409 kts | 317° |
| 2026-04-16 16:15 | 27.35483 | 30.77409 | 33672 ft | 409 kts | 317° |
| 2026-04-16 16:15 | 27.40122 | 30.73698 | 33668 ft | 409 kts | 317° |
| 2026-04-16 16:16 | 27.44789 | 30.69960 | 33662 ft | 409 kts | 317° |
| 2026-04-16 16:16 | 27.49461 | 30.66214 | 33673 ft | 410 kts | 317° |
| 2026-04-16 16:17 | 27.54108 | 30.62485 | 33670 ft | 410 kts | 317° |
| 2026-04-16 16:17 | 27.58723 | 30.58777 | 33669 ft | 411 kts | 317° |
| 2026-04-16 16:18 | 27.63413 | 30.55006 | 33665 ft | 411 kts | 317° |
| 2026-04-16 16:18 | 27.68075 | 30.51252 | 33668 ft | 412 kts | 317° |
| 2026-04-16 16:19 | 27.72737 | 30.47495 | 33674 ft | 412 kts | 317° |
| 2026-04-16 16:19 | 27.77410 | 30.43724 | 33667 ft | 413 kts | 317° |
| 2026-04-16 16:20 | 27.82087 | 30.39948 | 33668 ft | 413 kts | 317° |
| 2026-04-16 16:20 | 27.86764 | 30.36167 | 33669 ft | 413 kts | 317° |
| 2026-04-16 16:21 | 27.91469 | 30.32358 | 33663 ft | 414 kts | 317° |
| 2026-04-16 16:21 | 27.96149 | 30.28567 | 33664 ft | 413 kts | 317° |
| 2026-04-16 16:22 | 28.00825 | 30.24773 | 33665 ft | 413 kts | 317° |
| 2026-04-16 16:22 | 28.05498 | 30.20978 | 33666 ft | 413 kts | 317° |
| 2026-04-16 16:23 | 28.10171 | 30.17179 | 33661 ft | 413 kts | 317° |
| 2026-04-16 16:23 | 28.14869 | 30.13356 | 33664 ft | 413 kts | 317° |
| 2026-04-16 16:24 | 28.19532 | 30.09557 | 33659 ft | 413 kts | 317° |
| 2026-04-16 16:24 | 28.24195 | 30.05754 | 33664 ft | 413 kts | 317° |
| 2026-04-16 16:25 | 28.28852 | 30.01951 | 33658 ft | 413 kts | 317° |
| 2026-04-16 16:25 | 28.33512 | 29.98141 | 33659 ft | 413 kts | 316° |
| 2026-04-16 16:26 | 28.38142 | 29.94353 | 33653 ft | 413 kts | 316° |
| 2026-04-16 16:26 | 28.42796 | 29.90540 | 33658 ft | 412 kts | 316° |
| 2026-04-16 16:27 | 28.47444 | 29.86728 | 33660 ft | 412 kts | 316° |
| 2026-04-16 16:27 | 28.52101 | 29.82904 | 33658 ft | 412 kts | 316° |
| 2026-04-16 16:28 | 28.56755 | 29.79079 | 33659 ft | 412 kts | 316° |
| 2026-04-16 16:28 | 28.61400 | 29.75257 | 33660 ft | 412 kts | 316° |
| 2026-04-16 16:29 | 28.66047 | 29.71428 | 33658 ft | 412 kts | 316° |
| 2026-04-16 16:29 | 28.70687 | 29.67601 | 33664 ft | 412 kts | 316° |
| 2026-04-16 16:30 | 28.75331 | 29.63767 | 33657 ft | 412 kts | 316° |
| 2026-04-16 16:30 | 28.79969 | 29.59934 | 33662 ft | 412 kts | 316° |
| 2026-04-16 16:31 | 28.84606 | 29.56096 | 33659 ft | 412 kts | 316° |
| 2026-04-16 16:31 | 28.89238 | 29.52258 | 33653 ft | 411 kts | 316° |
| 2026-04-16 16:32 | 28.93861 | 29.48424 | 33659 ft | 411 kts | 316° |
| 2026-04-16 16:32 | 28.98486 | 29.44583 | 33663 ft | 410 kts | 316° |
| 2026-04-16 16:33 | 29.03101 | 29.40746 | 33655 ft | 410 kts | 316° |
| 2026-04-16 16:33 | 29.07716 | 29.36905 | 33665 ft | 410 kts | 316° |
| 2026-04-16 16:34 | 29.12846 | 29.33834 | 33665 ft | 428 kts | 334° |
| 2026-04-16 16:34 | 29.15769 | 29.33012 | 33657 ft | 439 kts | 342° |
| 2026-04-16 16:34 | 29.18861 | 29.32771 | 33670 ft | 448 kts | 349° |
| 2026-04-16 16:35 | 29.25080 | 29.32765 | 33663 ft | 451 kts | 351° |
| 2026-04-16 16:35 | 29.31348 | 29.32813 | 33656 ft | 450 kts | 351° |
| 2026-04-16 16:36 | 29.37610 | 29.32807 | 33661 ft | 450 kts | 351° |
| 2026-04-16 16:36 | 29.43913 | 29.32765 | 33662 ft | 450 kts | 350° |
| 2026-04-16 16:37 | 29.50171 | 29.32715 | 33655 ft | 450 kts | 350° |
| 2026-04-16 16:37 | 29.56432 | 29.32665 | 33664 ft | 450 kts | 350° |
| 2026-04-16 16:38 | 29.62699 | 29.32617 | 33653 ft | 450 kts | 351° |
| 2026-04-16 16:38 | 29.68962 | 29.32570 | 33662 ft | 450 kts | 351° |
| 2026-04-16 16:39 | 29.75192 | 29.32523 | 33655 ft | 451 kts | 351° |
| 2026-04-16 16:39 | 29.81469 | 29.32475 | 33651 ft | 451 kts | 351° |
| 2026-04-16 16:40 | 29.87745 | 29.32427 | 33653 ft | 451 kts | 351° |
| 2026-04-16 16:40 | 29.94027 | 29.32380 | 33660 ft | 451 kts | 351° |
| 2026-04-16 16:41 | 29.99244 | 29.32340 | 33656 ft | 452 kts | 351° |
| 2026-04-16 16:41 | 30.05531 | 29.32292 | 33653 ft | 452 kts | 351° |
| 2026-04-16 16:42 | 30.11812 | 29.32244 | 33657 ft | 452 kts | 351° |
| 2026-04-16 16:42 | 30.18102 | 29.32196 | 33656 ft | 452 kts | 351° |
| 2026-04-16 16:43 | 30.24391 | 29.32148 | 33665 ft | 452 kts | 351° |
| 2026-04-16 16:43 | 30.30683 | 29.32099 | 33662 ft | 452 kts | 351° |
| 2026-04-16 16:44 | 30.36976 | 29.32047 | 33665 ft | 452 kts | 351° |
| 2026-04-16 16:44 | 30.43271 | 29.31993 | 33664 ft | 452 kts | 351° |
| 2026-04-16 16:45 | 30.49567 | 29.31938 | 33668 ft | 453 kts | 351° |
| 2026-04-16 16:45 | 30.55870 | 29.31884 | 33672 ft | 453 kts | 351° |
| 2026-04-16 16:46 | 30.62175 | 29.31831 | 33669 ft | 454 kts | 351° |
| 2026-04-16 16:46 | 30.68530 | 29.31777 | 33681 ft | 454 kts | 352° |
| 2026-04-16 16:47 | 30.74852 | 29.31723 | 33676 ft | 454 kts | 352° |
| 2026-04-16 16:47 | 30.81169 | 29.31669 | 33682 ft | 454 kts | 352° |
| 2026-04-16 16:48 | 30.87494 | 29.31614 | 33675 ft | 455 kts | 352° |
| 2026-04-16 16:48 | 30.93827 | 29.31560 | 33682 ft | 455 kts | 352° |
| 2026-04-16 16:49 | 31.00161 | 29.31506 | 33679 ft | 455 kts | 352° |
| 2026-04-16 16:49 | 31.06496 | 29.31451 | 33685 ft | 455 kts | 352° |
| 2026-04-16 16:50 | 31.12830 | 29.31397 | 33686 ft | 455 kts | 352° |
| 2026-04-16 16:50 | 31.19162 | 29.31342 | 33688 ft | 455 kts | 353° |
| 2026-04-16 16:51 | 31.25485 | 29.31287 | 33685 ft | 455 kts | 353° |
| 2026-04-16 16:51 | 31.31808 | 29.31233 | 33690 ft | 454 kts | 353° |
| 2026-04-16 16:52 | 31.38127 | 29.31178 | 33689 ft | 454 kts | 353° |
| 2026-04-16 16:52 | 31.44439 | 29.31123 | 33692 ft | 453 kts | 353° |
| 2026-04-16 16:53 | 31.50782 | 29.31068 | 33694 ft | 453 kts | 354° |
| 2026-04-16 16:53 | 31.57035 | 29.31014 | 33697 ft | 452 kts | 354° |
| 2026-04-16 16:54 | 31.63372 | 29.30951 | 33698 ft | 452 kts | 354° |
| 2026-04-16 16:54 | 31.69618 | 29.30880 | 33701 ft | 451 kts | 354° |
| 2026-04-16 16:55 | 31.75898 | 29.30808 | 33699 ft | 451 kts | 354° |
| 2026-04-16 16:55 | 31.82219 | 29.30738 | 33702 ft | 451 kts | 354° |
| 2026-04-16 16:56 | 31.88494 | 29.30668 | 33699 ft | 451 kts | 354° |
| 2026-04-16 16:56 | 31.94763 | 29.30598 | 33709 ft | 451 kts | 355° |
| 2026-04-16 16:57 | 32.04184 | 29.30493 | 33704 ft | 451 kts | 355° |
| 2026-04-16 16:58 | 32.10462 | 29.30422 | 33704 ft | 451 kts | 355° |
| 2026-04-16 16:58 | 32.16740 | 29.30352 | 33706 ft | 451 kts | 355° |
| 2026-04-16 16:59 | 32.22874 | 29.29117 | 33712 ft | 441 kts | 337° |
| 2026-04-16 16:59 | 32.28338 | 29.26013 | 33715 ft | 435 kts | 327° |
| 2026-04-16 17:00 | 32.33628 | 29.22542 | 33709 ft | 435 kts | 327° |
| 2026-04-16 17:00 | 32.38923 | 29.19090 | 33662 ft | 436 kts | 328° |
| 2026-04-16 17:01 | 32.44245 | 29.15646 | 33711 ft | 436 kts | 328° |
| 2026-04-16 17:01 | 32.49580 | 29.12204 | 33716 ft | 437 kts | 328° |
| 2026-04-16 17:02 | 32.54926 | 29.08757 | 33717 ft | 438 kts | 328° |
| 2026-04-16 17:02 | 32.60272 | 29.05305 | 33717 ft | 439 kts | 328° |
| 2026-04-16 17:03 | 32.65640 | 29.01833 | 33714 ft | 439 kts | 328° |
| 2026-04-16 17:03 | 32.71010 | 28.98356 | 33717 ft | 440 kts | 328° |
| 2026-04-16 17:04 | 32.76375 | 28.94877 | 33716 ft | 440 kts | 328° |
| 2026-04-16 17:04 | 32.81748 | 28.91387 | 33727 ft | 440 kts | 328° |
| 2026-04-16 17:05 | 32.87118 | 28.87895 | 33728 ft | 440 kts | 328° |
| 2026-04-16 17:05 | 32.92495 | 28.84393 | 33727 ft | 441 kts | 328° |
| 2026-04-16 17:06 | 32.97909 | 28.80863 | 33729 ft | 441 kts | 328° |
| 2026-04-16 17:06 | 33.03292 | 28.77347 | 33734 ft | 441 kts | 328° |
| 2026-04-16 17:07 | 33.08676 | 28.73825 | 33737 ft | 442 kts | 328° |
| 2026-04-16 17:07 | 33.14036 | 28.70315 | 33741 ft | 443 kts | 328° |
| 2026-04-16 17:08 | 33.19471 | 28.66750 | 33740 ft | 444 kts | 328° |
| 2026-04-16 17:08 | 33.24848 | 28.63218 | 33742 ft | 445 kts | 328° |
| 2026-04-16 17:09 | 33.30275 | 28.59649 | 33734 ft | 446 kts | 328° |
| 2026-04-16 17:09 | 33.35760 | 28.56037 | 33740 ft | 447 kts | 328° |
| 2026-04-16 17:10 | 33.41175 | 28.52464 | 33745 ft | 448 kts | 328° |
| 2026-04-16 17:10 | 33.46672 | 28.48833 | 33748 ft | 449 kts | 328° |
| 2026-04-16 17:11 | 33.52150 | 28.45209 | 33746 ft | 450 kts | 328° |
| 2026-04-16 17:11 | 33.57629 | 28.41579 | 33748 ft | 451 kts | 328° |
| 2026-04-16 17:12 | 33.63118 | 28.37937 | 33752 ft | 451 kts | 328° |
| 2026-04-16 17:12 | 33.68614 | 28.34285 | 33756 ft | 452 kts | 328° |
| 2026-04-16 17:13 | 33.74124 | 28.30618 | 33755 ft | 453 kts | 328° |
| 2026-04-16 17:13 | 33.79638 | 28.26944 | 33756 ft | 453 kts | 328° |
| 2026-04-16 17:14 | 33.84212 | 28.23874 | 33755 ft | 453 kts | 328° |
| 2026-04-16 17:14 | 33.89757 | 28.20127 | 33758 ft | 454 kts | 328° |
| 2026-04-16 17:15 | 33.95264 | 28.16398 | 33757 ft | 454 kts | 328° |
| 2026-04-16 17:15 | 34.00775 | 28.12664 | 33759 ft | 455 kts | 328° |
| 2026-04-16 17:16 | 34.06291 | 28.08924 | 33766 ft | 455 kts | 329° |
| 2026-04-16 17:16 | 34.11807 | 28.05177 | 33763 ft | 455 kts | 329° |
| 2026-04-16 17:17 | 34.17322 | 28.01426 | 33768 ft | 455 kts | 329° |
| 2026-04-16 17:17 | 34.22845 | 27.97662 | 33765 ft | 456 kts | 329° |
| 2026-04-16 17:18 | 34.28361 | 27.93899 | 33767 ft | 456 kts | 329° |
| 2026-04-16 17:18 | 34.33888 | 27.90121 | 33769 ft | 456 kts | 329° |
| 2026-04-16 17:19 | 34.39418 | 27.86336 | 33771 ft | 457 kts | 329° |
| 2026-04-16 17:19 | 34.44985 | 27.82520 | 33776 ft | 458 kts | 329° |
| 2026-04-16 17:20 | 34.50539 | 27.78706 | 33783 ft | 458 kts | 329° |
| 2026-04-16 17:20 | 34.56091 | 27.74887 | 33779 ft | 459 kts | 329° |
| 2026-04-16 17:21 | 34.61655 | 27.71043 | 33783 ft | 460 kts | 329° |
| 2026-04-16 17:21 | 34.67221 | 27.67190 | 33783 ft | 461 kts | 329° |
| 2026-04-16 17:22 | 34.72764 | 27.63347 | 33788 ft | 462 kts | 329° |
| 2026-04-16 17:22 | 34.78343 | 27.59474 | 33787 ft | 462 kts | 329° |
| 2026-04-16 17:23 | 34.83926 | 27.55592 | 33793 ft | 462 kts | 329° |
| 2026-04-16 17:23 | 34.89503 | 27.51709 | 33795 ft | 462 kts | 329° |
| 2026-04-16 17:24 | 34.95120 | 27.47791 | 33799 ft | 461 kts | 329° |
| 2026-04-16 17:24 | 35.00682 | 27.43905 | 33803 ft | 461 kts | 329° |
| 2026-04-16 17:25 | 35.06204 | 27.40041 | 33809 ft | 460 kts | 328° |
| 2026-04-16 17:25 | 35.11786 | 27.36129 | 33808 ft | 460 kts | 328° |
| 2026-04-16 17:26 | 35.17337 | 27.32233 | 33822 ft | 459 kts | 328° |
| 2026-04-16 17:26 | 35.22875 | 27.28339 | 33822 ft | 459 kts | 328° |
| 2026-04-16 17:27 | 35.28417 | 27.24436 | 33831 ft | 459 kts | 328° |
| 2026-04-16 17:27 | 35.33960 | 27.20525 | 33835 ft | 460 kts | 328° |
| 2026-04-16 17:28 | 35.39506 | 27.16608 | 33828 ft | 460 kts | 329° |
| 2026-04-16 17:28 | 35.45154 | 27.12891 | 33939 ft | 461 kts | 333° |
| 2026-04-16 17:29 | 35.51072 | 27.09598 | 33856 ft | 473 kts | 335° |
| 2026-04-16 17:29 | 35.57129 | 27.06266 | 33832 ft | 476 kts | 334° |
| 2026-04-16 17:30 | 35.63156 | 27.02882 | 33829 ft | 476 kts | 334° |
| 2026-04-16 17:30 | 35.69164 | 26.99476 | 33829 ft | 476 kts | 334° |
| 2026-04-16 17:31 | 35.75174 | 26.96061 | 33832 ft | 475 kts | 334° |
| 2026-04-16 17:31 | 35.81166 | 26.92655 | 33835 ft | 474 kts | 334° |
| 2026-04-16 17:32 | 35.87145 | 26.89251 | 33841 ft | 473 kts | 334° |
| 2026-04-16 17:32 | 35.93109 | 26.85846 | 33837 ft | 472 kts | 334° |
| 2026-04-16 17:33 | 35.99070 | 26.82435 | 33833 ft | 472 kts | 334° |
| 2026-04-16 17:33 | 36.05028 | 26.79020 | 33849 ft | 472 kts | 334° |
| 2026-04-16 17:34 | 36.10991 | 26.75598 | 33841 ft | 473 kts | 334° |
| 2026-04-16 17:34 | 36.16961 | 26.72164 | 33846 ft | 473 kts | 334° |
| 2026-04-16 17:35 | 36.22944 | 26.68718 | 33852 ft | 474 kts | 334° |
| 2026-04-16 17:35 | 36.28926 | 26.65267 | 33847 ft | 475 kts | 334° |
| 2026-04-16 17:36 | 36.34918 | 26.61796 | 33847 ft | 476 kts | 334° |
| 2026-04-16 17:36 | 36.40919 | 26.58310 | 33862 ft | 476 kts | 334° |
| 2026-04-16 17:37 | 36.46916 | 26.54821 | 33860 ft | 476 kts | 333° |
| 2026-04-16 17:37 | 36.52914 | 26.51327 | 33864 ft | 476 kts | 333° |
| 2026-04-16 17:38 | 36.58912 | 26.47831 | 33864 ft | 476 kts | 333° |
| 2026-04-16 17:38 | 36.64901 | 26.44336 | 33874 ft | 475 kts | 333° |
| 2026-04-16 17:39 | 36.70876 | 26.40843 | 33870 ft | 474 kts | 333° |
| 2026-04-16 17:39 | 36.76855 | 26.37340 | 33877 ft | 474 kts | 333° |
| 2026-04-16 17:40 | 36.82816 | 26.33841 | 33874 ft | 473 kts | 333° |
| 2026-04-16 17:40 | 36.88764 | 26.30344 | 33879 ft | 473 kts | 333° |
| 2026-04-16 17:41 | 36.94708 | 26.26843 | 33888 ft | 472 kts | 333° |
| 2026-04-16 17:41 | 37.00641 | 26.23324 | 33886 ft | 471 kts | 332° |
| 2026-04-16 17:42 | 37.06536 | 26.19724 | 33888 ft | 471 kts | 332° |
| 2026-04-16 17:42 | 37.12413 | 26.16113 | 33894 ft | 470 kts | 332° |
| 2026-04-16 17:43 | 37.18204 | 26.12559 | 33885 ft | 470 kts | 332° |
| 2026-04-16 17:43 | 37.24120 | 26.08928 | 33998 ft | 477 kts | 332° |
| 2026-04-16 17:43 | 37.27109 | 26.07092 | 34157 ft | 479 kts | 332° |
| 2026-04-16 17:44 | 37.30101 | 26.05253 | 34447 ft | 477 kts | 332° |
| 2026-04-16 17:44 | 37.33070 | 26.03428 | 34770 ft | 474 kts | 332° |
| 2026-04-16 17:44 | 37.36028 | 26.01607 | 35081 ft | 472 kts | 332° |
| 2026-04-16 17:44 | 37.38964 | 25.99798 | 35397 ft | 469 kts | 332° |
| 2026-04-16 17:45 | 37.41893 | 25.97990 | 35662 ft | 468 kts | 332° |
| 2026-04-16 17:45 | 37.44813 | 25.96187 | 35881 ft | 467 kts | 332° |
| 2026-04-16 17:45 | 37.47740 | 25.94377 | 35894 ft | 471 kts | 332° |
| 2026-04-16 17:46 | 37.53619 | 25.90738 | 35901 ft | 469 kts | 332° |
| 2026-04-16 17:46 | 37.59447 | 25.87126 | 35920 ft | 464 kts | 332° |
| 2026-04-16 17:47 | 37.65221 | 25.83544 | 35910 ft | 461 kts | 332° |
| 2026-04-16 17:47 | 37.70960 | 25.79979 | 35912 ft | 459 kts | 332° |
| 2026-04-16 17:48 | 37.75715 | 25.77019 | 35929 ft | 458 kts | 332° |
| 2026-04-16 17:48 | 37.81429 | 25.73456 | 35929 ft | 458 kts | 332° |
| 2026-04-16 17:49 | 37.87149 | 25.69883 | 35920 ft | 459 kts | 332° |
| 2026-04-16 17:49 | 37.92887 | 25.66293 | 35934 ft | 460 kts | 332° |
| 2026-04-16 17:50 | 37.98670 | 25.62668 | 35938 ft | 461 kts | 332° |
| 2026-04-16 17:50 | 38.04435 | 25.59048 | 35936 ft | 463 kts | 332° |
| 2026-04-16 17:51 | 38.10207 | 25.55417 | 35931 ft | 464 kts | 332° |
| 2026-04-16 17:51 | 38.15989 | 25.51774 | 35924 ft | 464 kts | 332° |
| 2026-04-16 17:52 | 38.21773 | 25.48123 | 35941 ft | 464 kts | 332° |
| 2026-04-16 17:52 | 38.27551 | 25.44469 | 35938 ft | 464 kts | 332° |
| 2026-04-16 17:53 | 38.33326 | 25.40811 | 35937 ft | 463 kts | 332° |
| 2026-04-16 17:53 | 38.39092 | 25.37152 | 35945 ft | 463 kts | 332° |
| 2026-04-16 17:54 | 38.44823 | 25.33508 | 35948 ft | 462 kts | 332° |
| 2026-04-16 17:54 | 38.50577 | 25.29843 | 35943 ft | 462 kts | 332° |
| 2026-04-16 17:55 | 38.56328 | 25.26173 | 35957 ft | 462 kts | 332° |
| 2026-04-16 17:55 | 38.62076 | 25.22499 | 35961 ft | 462 kts | 332° |
| 2026-04-16 17:56 | 38.67815 | 25.18823 | 35959 ft | 462 kts | 332° |
| 2026-04-16 17:56 | 38.76433 | 25.13293 | 35960 ft | 462 kts | 332° |
| 2026-04-16 17:57 | 38.82185 | 25.09593 | 35969 ft | 463 kts | 332° |
| 2026-04-16 17:57 | 38.87943 | 25.05882 | 35968 ft | 463 kts | 332° |
| 2026-04-16 17:58 | 38.93685 | 25.02174 | 35974 ft | 461 kts | 332° |
| 2026-04-16 17:58 | 38.99392 | 24.98481 | 35981 ft | 458 kts | 332° |
| 2026-04-16 17:59 | 39.05086 | 24.94792 | 35989 ft | 459 kts | 332° |
| 2026-04-16 17:59 | 39.10808 | 24.91082 | 35999 ft | 463 kts | 332° |
| 2026-04-16 18:00 | 39.16626 | 24.87453 | 35998 ft | 466 kts | 333° |
| 2026-04-16 18:00 | 39.22500 | 24.83843 | 36003 ft | 468 kts | 333° |
| 2026-04-16 18:01 | 39.28372 | 24.80208 | 36011 ft | 468 kts | 333° |
| 2026-04-16 18:01 | 39.34244 | 24.76551 | 36007 ft | 466 kts | 333° |
| 2026-04-16 18:02 | 39.40065 | 24.72918 | 36014 ft | 463 kts | 333° |
| 2026-04-16 18:02 | 39.44862 | 24.69918 | 36006 ft | 458 kts | 333° |